默认 日期 大小 文件数 浏览量 最新下载 xml
3d 2016磁力链接相关资源由用户搜索指令自动获取,结果来源于网络,本站不存储任何资料,亦不承担任何责任,请于24小时内删除,搜索到1970个磁力,用时28ms。
    {"RARBG.com.txt": 34, "Kung.Fu.Panda.3.2016.3D.1080p.BluRay.x264-SPRiNTER.mkv": 4694870374, "kung.fu.panda.3.2016.3d.1080p.bluray.x264-sprinter.jpg": 6381, "kung.fu.panda.3.2016.3d.1080p.bluray.x264-sprinter.nfo": 4841}
创建时间: 2018-12-04 12:18:43 大小:4.37 GB 文件数量:4 热度:8 最近下载:2025-04-16 19:17:02
    {"Subs": {"English.srt": 104957}, "Angry Birds 2016 1080p 3D BluRay Half-OU x264 AC3-JYK.mkv": 5882927139, "Angry Birds 2016 1080p 3D BluRay Half-OU x264 AC3-JYK.mkv.jpg": 276479}
创建时间: 2018-12-04 12:23:57 大小:5.48 GB 文件数量:3 热度:9 最近下载:2025-10-17 22:49:02
    {"Independence Day.Resurgence.2016.1080p.3D.BluRay.Half-SBS.ts.AC3-TtRG.ts": 5543048964, "Independence Day.Resurgence.2016.1080p.3D.BluRay.Half-SBS.ts.AC3-TtRG.nfo": 3582, "Independence Day.Resurgence.2016.1080p.3D.BluRay.Half-SBS.ts.AC3-TtRG.srt": 182670}
创建时间: 2018-12-04 14:04:12 大小:5.16 GB 文件数量:3 热度:17 最近下载:2025-04-14 23:55:01
    {"RARBG.com.mp4": 1016764, "RARBG.com.txt": 34, "Gods.of.Egypt.2016.1080p.3D.BluRay.Half-SBS.x264.DTS-HD.MA.7.1-RARBG.mkv": 22401433585, "Gods.of.Egypt.2016.1080p.3D.BluRay.Half-SBS.x264.DTS-HD.MA.7.1-RARBG.nfo": 11525}
创建时间: 2018-12-04 15:57:51 大小:20.86 GB 文件数量:4 热度:15 最近下载:2025-04-14 23:55:02
    ... -NPW.idx": 188879, "Doctor Strange 2016 BRRip x264 1080p-NPW.sub ... .CO.txt": 54, "Doctor Strange 2016 3D Half-SBS BRRip x264 1080p ... -NPW.mp4": 4039484215, "Doctor Strange 2016 3D Half-SBS BRRip x264 1080p ...
创建时间: 2018-12-04 16:19:59 大小:3.81 GB 文件数量:6 热度:8 最近下载:2025-04-14 23:55:02
    {"RARBG.txt": 31, "Rogue.One.2016.1080p.3D.BluRay.Half-SBS.x264.DTS-HD.MA.7.1-FGT.mkv": 23562215375, "Rogue.One.2016.1080p.3D.BluRay.Half-SBS.x264.DTS-HD.MA.7.1-FGT.nfo": 14853}
创建时间: 2018-12-04 17:32:38 大小:21.94 GB 文件数量:3 热度:17 最近下载:2025-10-13 04:51:03
    {"GodsOfEgypt(2016)3D-halfOU(Ash61).mkv": 12760449887, "GodsOfEgypt(2016)Subs.Eng.Full(BD3D)-UTF8.srt": 88489, "GodsOfEgypt(2016)Subs.Eng.SDH(BD3D)(I=l)-UTF8.srt": 104404}
创建时间: 2018-12-04 19:07:04 大小:11.88 GB 文件数量:3 热度:7 最近下载:2023-04-21 15:10:02
    ... ": {"The.Legend.of.Tarzan.2016.3D.1080p.BluRay.x264-SPRiNTER.srt ... ": {"The.Legend.of.Tarzan.2016.3D.1080p.BluRay.x264-SPRiNTER.idx ... "The.Legend.of.Tarzan.2016.3D.1080p.BluRay.x264-SPRiNTER.sub ... "The.Legend.of.Tarzan.2016.3D.1080p.BluRay.x264-SPRiNTER.mkv ...
创建时间: 2018-12-04 19:35:55 大小:7.65 GB 文件数量:5 热度:17 最近下载:2025-08-03 08:45:02
    ... , "8.jpg": 675678}, "Finding Dorry (2016) 3D HOU 1080p BDrip in Dual ...
创建时间: 2018-12-04 22:39:01 大小:4.25 GB 文件数量:11 热度:15 最近下载:2023-04-21 16:30:08
    {"Torrent Downloaded From ExtraTorrent.cc.txt": 341, "Fantastic.Beasts.and.Where.to.Find.Them.2016.3D.1080p.BRRip.Half-SBS.x264.AAC-ETRG.mp4": 2084435580}
创建时间: 2018-12-04 23:07:31 大小:1.94 GB 文件数量:2 热度:12 最近下载:2025-04-08 12:45:03
    {"TIBURONES DEL HIELO[3D-SBS][IÑAKI].mkv": 2249808797}
创建时间: 2018-12-05 00:53:24 大小:2.1 GB 文件数量:1 热度:6 最近下载:2023-04-21 17:30:02
    {"06 - Vision.mp3": 9355406, "03 - Hard Grid .mp3": 10885679, "05 - Grab and Run.mp3": 9493880, "02 - Prowler's Beats.mp3": 10692420, "04 - Internal Void_1999 .mp3": 12536635, "01 - Daybreak Of Insanity.mp3": 10293214, "R-8769381-1468389789-3975.jpeg.jpg": ...
创建时间: 2018-12-05 03:06:36 大小:60.41 MB 文件数量:7 热度:9 最近下载:2025-05-23 06:53:01
    ... Primeiro.Encontro.de.Dois.Mundos.2016.1080p.3D.Bluray.Half-SBS.x264 ... Primeiro.Encontro.de.Dois.Mundos.2016.1080p.3D.Bluray.Half-SBS.x264 ... .Encontro.de.Dois.Mundos.2016.1080p.3D.Bluray.Half-SBS.x264 ... .Encontro.de.Dois.Mundos.2016.1080p.3D.Bluray.Half-SBS.x264 ...
创建时间: 2018-12-05 06:00:57 大小:14.13 GB 文件数量:9 热度:13 最近下载:2025-05-23 13:25:03
    {"Torrent Downloaded From ExtraTorrent.cc.txt": 341, "Ice.Age.Collision.Course.2016.3D.1080p.BRRip.Half-SBS.x264.AAC-ETRG.mp4": 1485765960}
创建时间: 2018-12-05 06:15:51 大小:1.38 GB 文件数量:2 热度:7 最近下载:2025-04-08 12:46:01
    {"WWW.YTS.AG.jpg": 105827, "Storks.2016.3D.HSBS.BluRay.x264-[YTS.AG].mp4": 1427634901}
创建时间: 2018-12-05 07:13:46 大小:1.33 GB 文件数量:2 热度:7 最近下载:2023-04-21 19:50:03
    {"Leer.txt": 331, "sample.mkv": 84411016, "www.alt-torrent.com.txt": 405, "POR FAVOR!.....COMPARTAN!.txt": 111, "Gods of Egypt (2016) 3D LAT - Pitufo180.jpg": 52029, "Gods of Egypt (2016) 3D LAT - Pitufo180.mkv": 20127575550}
创建时间: 2018-12-05 08:56:45 大小:18.82 GB 文件数量:6 热度:18 最近下载:2025-05-10 06:46:02
    ... ": 110, "O.Bom.Gigante.Amigo.2016.3D.HSBS.1080p.BluRay.5.1 ... ": 2671362964, "O.Bom.Gigante.Amigo.2016.3D.HSBS.1080p.BluRay.5.1 ... ": 59587, "O.Bom.Gigante.Amigo.2016.3D.HSBS.1080p.BluRay.5.1 ...
创建时间: 2018-12-05 09:17:50 大小:2.49 GB 文件数量:5 热度:10 最近下载:2025-09-27 06:06:01
    ... , "The.Secret.Life.of.Pets.2016-HINA.3d.sbs.hunsub.sup": 37395696 ... , "The.Secret.Life.of.Pets.2016- ... .Secret.Life.of.Pets.2016-HINA.3d.sbs.hunsub.forced.sup": 924898 ... }, "The.Secret.Life.of.Pets.2016 ...
创建时间: 2018-12-05 11:51:31 大小:12.43 GB 文件数量:9 热度:14 最近下载:2025-02-03 10:56:04
    {"MASCOTAS[3D-SBS][IÑAKI].mkv": 1912130066}
创建时间: 2018-12-05 23:48:48 大小:1.78 GB 文件数量:1 热度:7 最近下载:2023-04-22 05:10:19
    {"RARBG.txt": 31, "Underworld.Blood.Wars.2016.1080p.3D.BluRay.Half-SBS.x264.DTS-HD.MA.5.1-FGT.mkv": 20324151053, "Underworld.Blood.Wars.2016.1080p.3D.BluRay.Half-SBS.x264.DTS-HD.MA.5.1-FGT.nfo": 19386}
创建时间: 2018-12-05 23:51:56 大小:18.93 GB 文件数量:3 热度:18 最近下载:2025-08-06 17:21:04